createdAt,value
2022-10-15T00:01:22.480Z,49.34
2022-10-15T00:03:49.538Z,50.70
2022-10-15T00:06:19.691Z,50.56
2022-10-15T00:08:48.086Z,49.96
2022-10-15T00:11:18.977Z,49.19
2022-10-15T00:13:46.143Z,48.80
2022-10-15T00:16:19.673Z,48.64
2022-10-15T00:18:48.308Z,48.75
2022-10-15T00:21:18.217Z,48.85
2022-10-15T00:23:46.152Z,48.88
2022-10-15T00:26:16.505Z,49.05
2022-10-15T00:28:44.061Z,49.27
2022-10-15T00:31:14.624Z,49.08
2022-10-15T00:33:42.211Z,49.21
2022-10-15T00:36:20.078Z,49.36
2022-10-15T00:38:48.276Z,49.48
2022-10-15T00:41:19.422Z,49.67
2022-10-15T00:43:54.104Z,49.84
2022-10-15T00:46:27.715Z,51.02
2022-10-15T00:49:20.972Z,50.81
2022-10-15T00:52:10.893Z,49.87
2022-10-15T00:54:42.490Z,49.53
2022-10-15T00:57:11.250Z,49.32
2022-10-15T00:59:47.816Z,49.15
2022-10-15T01:02:18.251Z,49.18
2022-10-15T01:04:46.281Z,49.30
2022-10-15T01:07:13.387Z,49.20
2022-10-15T01:09:43.060Z,49.28
2022-10-15T01:12:33.338Z,49.13
2022-10-15T01:15:14.576Z,49.24
2022-10-15T01:18:10.129Z,49.15
2022-10-15T01:20:49.365Z,49.13
2022-10-15T01:23:31.563Z,49.18
2022-10-15T01:26:14.576Z,49.16
2022-10-15T01:28:54.181Z,49.40
2022-10-15T01:32:03.240Z,49.69
2022-10-15T01:34:45.217Z,50.82
2022-10-15T01:37:21.853Z,50.60
2022-10-15T01:39:57.778Z,49.97
2022-10-15T01:42:30.516Z,49.29
2022-10-15T01:45:02.961Z,49.35
2022-10-15T01:48:11.461Z,49.05
2022-10-15T01:51:01.763Z,49.18
2022-10-15T01:53:29.920Z,49.24
2022-10-15T01:56:20.392Z,49.24
2022-10-15T01:58:51.352Z,49.05
2022-10-15T02:01:18.418Z,48.99
2022-10-15T02:03:51.132Z,48.93
2022-10-15T02:06:44.548Z,48.76
2022-10-15T02:09:25.285Z,48.94
2022-10-15T02:12:04.526Z,48.97
2022-10-15T02:14:56.193Z,49.09
2022-10-15T02:17:34.873Z,49.32
2022-10-15T02:20:07.643Z,49.37
2022-10-15T02:22:38.266Z,49.70
2022-10-15T02:25:15.766Z,51.09
2022-10-15T02:27:47.925Z,50.92
2022-10-15T02:30:16.575Z,50.19
2022-10-15T02:32:47.600Z,49.74
2022-10-15T02:35:14.959Z,49.55
2022-10-15T02:37:47.641Z,49.39
2022-10-15T02:40:17.741Z,49.41
2022-10-15T02:42:44.767Z,49.49
2022-10-15T02:45:11.782Z,49.98
2022-10-15T02:47:39.673Z,50.19
2022-10-15T02:50:06.850Z,50.32
2022-10-15T02:52:33.840Z,50.32
2022-10-15T02:55:00.933Z,50.43
2022-10-15T02:57:27.949Z,50.88
2022-10-15T02:59:54.980Z,52.10
2022-10-15T03:02:22.091Z,51.88
2022-10-15T03:04:49.076Z,51.33
2022-10-15T03:07:16.167Z,50.81
2022-10-15T03:09:43.367Z,50.69
2022-10-15T03:12:10.533Z,50.56
2022-10-15T03:14:37.586Z,50.75
2022-10-15T03:17:04.850Z,50.86
2022-10-15T03:19:31.844Z,51.00
2022-10-15T03:21:58.883Z,50.80
2022-10-15T03:24:30.704Z,50.74
2022-10-15T03:26:58.033Z,51.08
2022-10-15T03:29:25.979Z,51.32
2022-10-15T03:31:58.214Z,52.32
2022-10-15T03:34:25.337Z,51.67
2022-10-15T03:36:52.388Z,51.14
2022-10-15T03:39:19.590Z,50.37
2022-10-15T03:41:46.623Z,50.16
2022-10-15T03:44:18.891Z,49.80
2022-10-15T03:49:33.871Z,49.90
2022-10-15T03:52:02.614Z,49.89
2022-10-15T03:54:29.855Z,49.93
2022-10-15T03:56:56.962Z,49.92
2022-10-15T03:59:36.102Z,49.98
2022-10-15T04:02:03.662Z,49.94
2022-10-15T04:04:31.296Z,50.12
2022-10-15T04:06:58.605Z,50.56
2022-10-15T04:09:26.121Z,51.63
2022-10-15T04:11:57.071Z,51.52
2022-10-15T04:14:24.220Z,51.02
2022-10-15T04:16:51.350Z,50.33
2022-10-15T04:19:21.169Z,50.01
2022-10-15T04:21:57.888Z,49.75
2022-10-15T04:24:30.906Z,49.66
2022-10-15T04:26:57.888Z,49.91
2022-10-15T04:29:25.192Z,49.97
2022-10-15T04:31:53.548Z,50.15
2022-10-15T04:34:20.549Z,50.41
2022-10-15T04:36:48.156Z,50.64
2022-10-15T04:39:19.884Z,50.57
2022-10-15T04:41:46.915Z,50.91
2022-10-15T04:44:17.399Z,51.85
2022-10-15T04:46:49.615Z,51.36
2022-10-15T04:49:35.176Z,50.49
2022-10-15T04:52:03.890Z,49.87
2022-10-15T04:54:37.382Z,49.60
2022-10-15T04:57:06.129Z,49.23
2022-10-15T04:59:33.332Z,49.21
2022-10-15T05:02:19.432Z,49.15
2022-10-15T05:04:50.542Z,49.04
2022-10-15T05:07:17.593Z,49.21
2022-10-15T05:09:46.613Z,49.20
2022-10-15T05:12:14.776Z,48.97
2022-10-15T05:14:42.160Z,48.85
2022-10-15T05:17:18.540Z,48.69
2022-10-15T05:19:45.587Z,48.45
2022-10-15T05:22:22.994Z,48.36
2022-10-15T05:24:53.108Z,48.37
2022-10-15T05:27:35.144Z,48.28
2022-10-15T05:30:04.755Z,48.18
2022-10-15T05:32:57.757Z,48.05
2022-10-15T05:35:26.110Z,47.78
2022-10-15T05:37:55.294Z,47.48
2022-10-15T05:40:23.256Z,47.22
2022-10-15T05:43:25.863Z,46.92
2022-10-15T05:45:57.042Z,46.98
2022-10-15T05:48:24.546Z,46.52
2022-10-15T05:50:51.946Z,46.50
2022-10-15T05:53:23.608Z,46.40
2022-10-15T05:55:54.959Z,46.29
2022-10-15T05:58:23.573Z,45.96
2022-10-15T06:00:58.813Z,46.04
2022-10-15T06:03:26.890Z,45.70
2022-10-15T06:05:54.501Z,45.58
2022-10-15T06:08:23.108Z,45.13
2022-10-15T06:10:50.116Z,44.80
2022-10-15T06:13:17.656Z,44.23
2022-10-15T06:15:46.617Z,43.51
2022-10-15T06:18:16.284Z,43.38
2022-10-15T06:20:44.372Z,43.05
2022-10-15T06:23:12.230Z,42.63
2022-10-15T06:25:39.757Z,42.65
2022-10-15T06:28:07.431Z,42.61
2022-10-15T06:30:42.113Z,42.09
2022-10-15T06:35:42.148Z,41.99
2022-10-15T06:38:09.184Z,42.14
2022-10-15T06:40:38.908Z,42.42
2022-10-15T06:43:11.498Z,42.10
2022-10-15T06:45:42.083Z,42.56
2022-10-15T06:48:17.540Z,41.89
2022-10-15T06:50:44.787Z,41.72
2022-10-15T06:53:11.765Z,41.88
2022-10-15T06:55:39.699Z,41.77
2022-10-15T06:58:06.779Z,42.07
2022-10-15T07:03:07.420Z,41.77
2022-10-15T07:05:34.963Z,41.43
2022-10-15T07:08:02.145Z,41.06
2022-10-15T07:10:29.646Z,41.04
2022-10-15T07:13:00.895Z,40.86
2022-10-15T07:15:29.332Z,41.00
2022-10-15T07:17:57.989Z,40.24
2022-10-15T07:20:25.070Z,40.46
2022-10-15T07:23:00.475Z,40.57
2022-10-15T07:25:30.518Z,40.02
2022-10-15T07:27:58.053Z,39.53
2022-10-15T07:30:28.976Z,39.80
2022-10-15T07:33:00.009Z,39.35
2022-10-15T07:35:28.095Z,39.74
2022-10-15T07:37:55.480Z,39.53
2022-10-15T07:40:22.836Z,39.00
2022-10-15T07:42:54.564Z,38.82
2022-10-15T07:45:22.562Z,38.80
2022-10-15T07:47:50.122Z,38.87
2022-10-15T07:50:17.265Z,38.07
2022-10-15T07:52:45.261Z,38.32
2022-10-15T07:55:12.958Z,38.39
2022-10-15T07:57:40.352Z,38.28
2022-10-15T08:00:08.329Z,38.04
2022-10-15T08:02:39.798Z,37.97
2022-10-15T08:05:07.236Z,38.36
2022-10-15T08:07:34.207Z,38.21
2022-10-15T08:10:02.008Z,38.14
2022-10-15T08:12:29.049Z,37.63
2022-10-15T08:14:56.007Z,37.80
2022-10-15T08:17:22.987Z,37.78
2022-10-15T08:19:50.103Z,37.73
2022-10-15T08:22:17.137Z,37.78
2022-10-15T08:24:44.279Z,37.85
2022-10-15T08:27:11.290Z,37.25
2022-10-15T08:29:39.552Z,37.25
2022-10-15T08:32:06.620Z,37.01
2022-10-15T08:34:33.927Z,36.75
2022-10-15T08:37:02.921Z,36.98
2022-10-15T08:39:30.068Z,36.54
2022-10-15T08:42:04.000Z,36.68
2022-10-15T08:44:43.731Z,36.51
2022-10-15T08:47:36.910Z,36.32
2022-10-15T08:50:50.394Z,36.75
2022-10-15T08:53:23.538Z,36.71
2022-10-15T08:56:02.258Z,37.02
2022-10-15T08:58:47.776Z,36.70
2022-10-15T09:01:29.458Z,36.84
2022-10-15T09:04:19.847Z,37.27
2022-10-15T09:06:50.573Z,37.17
2022-10-15T09:09:49.603Z,36.93
2022-10-15T09:12:22.558Z,37.13
2022-10-15T09:14:50.409Z,37.34
2022-10-15T09:17:25.183Z,37.05
2022-10-15T09:19:58.126Z,36.65
2022-10-15T09:22:31.694Z,36.74
2022-10-15T09:24:58.774Z,36.82
2022-10-15T09:27:35.960Z,36.66
2022-10-15T09:30:06.282Z,36.05
2022-10-15T09:32:54.362Z,36.32
2022-10-15T09:35:49.733Z,36.41
2022-10-15T09:38:36.646Z,36.26
2022-10-15T09:41:16.900Z,35.99
2022-10-15T09:43:51.554Z,35.95
2022-10-15T09:46:19.803Z,35.46
2022-10-15T09:49:03.646Z,35.78
2022-10-15T09:51:45.716Z,35.84
2022-10-15T09:54:15.769Z,35.74
2022-10-15T09:56:52.493Z,35.53
2022-10-15T09:59:22.190Z,35.53
2022-10-15T10:02:03.239Z,35.47
2022-10-15T10:04:33.065Z,35.48
2022-10-15T10:07:07.629Z,35.11
2022-10-15T10:09:39.159Z,34.91
2022-10-15T10:12:09.014Z,35.33
2022-10-15T10:14:41.354Z,35.05
2022-10-15T10:17:21.242Z,34.90
2022-10-15T10:20:04.365Z,35.01
2022-10-15T10:22:50.400Z,34.84
2022-10-15T10:25:45.363Z,34.87
2022-10-15T10:28:12.308Z,34.73
2022-10-15T10:31:09.771Z,34.61
2022-10-15T10:33:39.785Z,34.68
2022-10-15T10:38:40.395Z,34.39
2022-10-15T10:41:10.177Z,34.31
2022-10-15T10:43:52.241Z,34.40
2022-10-15T10:46:20.884Z,34.22
2022-10-15T10:48:52.880Z,33.81
2022-10-15T10:51:25.528Z,34.10
2022-10-15T10:53:59.895Z,34.00
2022-10-15T10:56:41.002Z,34.17
2022-10-15T10:59:19.904Z,34.19
2022-10-15T11:01:50.336Z,33.79
2022-10-15T11:04:38.270Z,33.98
2022-10-15T11:07:48.290Z,33.86
2022-10-15T11:10:31.960Z,33.63
2022-10-15T11:13:30.365Z,33.85
2022-10-15T11:16:08.756Z,33.72
2022-10-15T11:19:18.630Z,33.80
2022-10-15T11:22:05.830Z,34.00
2022-10-15T11:25:07.161Z,33.83
2022-10-15T11:27:46.983Z,33.64
2022-10-15T11:30:32.401Z,33.71
2022-10-15T11:33:08.890Z,33.51
2022-10-15T11:35:54.392Z,33.85
2022-10-15T11:38:38.701Z,33.98
2022-10-15T11:41:16.020Z,33.96
2022-10-15T11:43:46.322Z,33.92
2022-10-15T11:46:25.853Z,33.61
2022-10-15T11:49:30.960Z,33.53
2022-10-15T11:52:33.784Z,33.65
2022-10-15T11:55:10.940Z,33.58
2022-10-15T11:57:40.481Z,33.66
2022-10-15T12:00:33.145Z,33.53
2022-10-15T12:03:12.387Z,33.63
2022-10-15T12:05:53.739Z,33.77
2022-10-15T12:08:22.934Z,33.58
2022-10-15T12:11:27.255Z,33.66
2022-10-15T12:14:12.878Z,33.54
2022-10-15T12:16:48.901Z,33.72
2022-10-15T12:19:24.600Z,33.39
2022-10-15T12:21:56.745Z,33.51
2022-10-15T12:24:44.762Z,33.66
2022-10-15T12:27:16.309Z,33.50
2022-10-15T12:29:43.353Z,33.55
2022-10-15T12:32:27.707Z,33.47
2022-10-15T12:35:01.204Z,33.35
2022-10-15T12:37:31.895Z,33.75
2022-10-15T12:40:03.731Z,33.58
2022-10-15T12:42:32.113Z,33.85
2022-10-15T12:45:05.473Z,33.73
2022-10-15T12:48:17.576Z,33.65
2022-10-15T12:50:46.422Z,33.65
2022-10-15T12:56:10.905Z,33.56
2022-10-15T12:58:47.078Z,33.64
2022-10-15T13:01:14.176Z,33.65
2022-10-15T13:03:54.178Z,33.82
2022-10-15T13:06:21.328Z,33.21
2022-10-15T13:09:17.005Z,33.38
2022-10-15T13:11:49.068Z,33.52
2022-10-15T13:14:39.357Z,33.75
2022-10-15T13:17:21.087Z,33.67
2022-10-15T13:20:02.955Z,33.48
2022-10-15T13:22:31.585Z,33.31
2022-10-15T13:25:00.177Z,33.44
2022-10-15T13:27:33.385Z,33.49
2022-10-15T13:30:09.609Z,33.25
2022-10-15T13:32:44.453Z,33.32
2022-10-15T13:35:18.062Z,33.32
2022-10-15T13:37:47.073Z,33.28
2022-10-15T13:40:31.574Z,33.48
2022-10-15T13:43:06.481Z,33.36
2022-10-15T13:45:33.940Z,33.40
2022-10-15T13:48:01.301Z,33.42
2022-10-15T13:50:34.925Z,33.34
2022-10-15T13:53:07.395Z,33.09
2022-10-15T13:55:37.065Z,33.37
2022-10-15T13:58:17.274Z,33.40
2022-10-15T14:01:01.267Z,33.61
2022-10-15T14:03:32.691Z,33.54
2022-10-15T14:06:32.643Z,33.53
2022-10-15T14:09:27.366Z,33.68
2022-10-15T14:11:59.129Z,33.68
2022-10-15T14:14:37.064Z,33.71
2022-10-15T14:17:07.730Z,33.92
2022-10-15T14:19:38.549Z,33.88
2022-10-15T14:22:06.450Z,34.05
2022-10-15T14:24:39.128Z,34.11
2022-10-15T14:27:20.641Z,34.31
2022-10-15T14:29:50.618Z,34.47
2022-10-15T14:32:23.916Z,34.69
2022-10-15T14:34:53.719Z,34.78
2022-10-15T14:37:36.241Z,35.01
2022-10-15T14:40:08.420Z,35.29
2022-10-15T14:42:49.085Z,35.43
2022-10-15T14:45:19.197Z,35.54
2022-10-15T14:47:52.900Z,35.64
2022-10-15T14:50:20.967Z,35.90
2022-10-15T14:52:51.902Z,35.97
2022-10-15T14:55:38.436Z,36.20
2022-10-15T14:58:18.363Z,36.34
2022-10-15T15:00:49.526Z,36.56
2022-10-15T15:03:22.244Z,36.43
2022-10-15T15:05:53.018Z,36.77
2022-10-15T15:08:21.715Z,36.63
2022-10-15T15:10:51.535Z,36.73
2022-10-15T15:13:27.068Z,36.82
2022-10-15T15:15:55.001Z,37.22
2022-10-15T15:18:22.512Z,37.31
2022-10-15T15:20:51.521Z,37.33
2022-10-15T15:23:25.810Z,37.44
2022-10-15T15:25:54.489Z,37.61
2022-10-15T15:28:25.034Z,37.80
2022-10-15T15:31:05.682Z,38.12
2022-10-15T15:33:33.239Z,38.39
2022-10-15T15:36:12.480Z,38.55
2022-10-15T15:38:40.283Z,38.57
2022-10-15T15:41:20.803Z,38.85
2022-10-15T15:43:48.592Z,39.17
2022-10-15T15:46:16.026Z,38.81
2022-10-15T15:48:43.282Z,39.09
2022-10-15T15:51:28.352Z,39.29
2022-10-15T15:53:56.066Z,39.37
2022-10-15T15:56:23.435Z,39.32
2022-10-15T15:58:51.502Z,39.42
2022-10-15T16:01:19.994Z,39.69
2022-10-15T16:03:47.609Z,39.91
2022-10-15T16:06:14.633Z,39.86
2022-10-15T16:08:41.779Z,40.23
2022-10-15T16:11:08.939Z,40.40
2022-10-15T16:13:36.173Z,40.33
2022-10-15T16:16:03.640Z,40.46
2022-10-15T16:18:30.639Z,40.47
2022-10-15T16:20:57.791Z,40.36
2022-10-15T16:23:24.889Z,40.42
2022-10-15T16:25:52.544Z,40.63
2022-10-15T16:28:19.626Z,40.60
2022-10-15T16:30:46.747Z,40.77
2022-10-15T16:33:13.802Z,40.58
2022-10-15T16:35:41.252Z,40.59
2022-10-15T16:38:09.075Z,40.35
2022-10-15T16:40:36.158Z,40.40
2022-10-15T16:43:03.161Z,40.70
2022-10-15T16:45:30.194Z,40.76
2022-10-15T16:47:57.510Z,40.95
2022-10-15T16:50:24.762Z,41.17
2022-10-15T16:52:51.781Z,41.39
2022-10-15T16:55:18.955Z,41.27
2022-10-15T16:57:46.010Z,41.68
2022-10-15T17:00:13.580Z,42.08
2022-10-15T17:02:40.717Z,42.18
2022-10-15T17:05:08.445Z,42.16
2022-10-15T17:07:35.483Z,42.26
2022-10-15T17:10:02.726Z,42.25
2022-10-15T17:12:29.828Z,42.63
2022-10-15T17:14:56.876Z,42.75
2022-10-15T17:17:24.084Z,42.55
2022-10-15T17:19:51.336Z,42.85
2022-10-15T17:22:18.487Z,43.01
2022-10-15T17:24:45.474Z,43.27
2022-10-15T17:27:12.850Z,43.71
2022-10-15T17:29:39.898Z,43.48
2022-10-15T17:32:07.330Z,43.56
2022-10-15T17:34:34.684Z,43.37
2022-10-15T17:37:02.558Z,43.59
2022-10-15T17:39:29.573Z,43.94
2022-10-15T17:41:56.611Z,43.99
2022-10-15T17:44:23.704Z,43.97
2022-10-15T17:46:52.905Z,44.09
2022-10-15T17:49:26.422Z,44.12
2022-10-15T17:51:53.573Z,44.00
2022-10-15T17:54:20.653Z,44.12
2022-10-15T17:56:48.730Z,44.44
2022-10-15T17:59:15.934Z,44.23
2022-10-15T18:02:00.714Z,44.42
2022-10-15T18:04:31.300Z,44.65
2022-10-15T18:06:58.294Z,44.40
2022-10-15T18:09:27.023Z,44.62
2022-10-15T18:12:00.569Z,45.01
2022-10-15T18:14:29.252Z,45.15
2022-10-15T18:16:56.599Z,45.05
2022-10-15T18:19:25.847Z,45.03
2022-10-15T18:21:53.049Z,45.36
2022-10-15T18:24:22.133Z,45.34
2022-10-15T18:26:50.959Z,45.29
2022-10-15T18:29:18.773Z,45.49
2022-10-15T18:31:47.263Z,45.44
2022-10-15T18:34:14.737Z,45.59
2022-10-15T18:36:43.666Z,45.59
2022-10-15T18:39:11.765Z,45.98
2022-10-15T18:41:40.274Z,46.18
2022-10-15T18:44:14.903Z,46.50
2022-10-15T18:46:45.143Z,46.40
2022-10-15T18:49:15.020Z,46.86
2022-10-15T18:51:42.271Z,46.60
2022-10-15T18:54:11.020Z,46.93
2022-10-15T18:56:39.043Z,47.13
2022-10-15T18:59:06.181Z,46.87
2022-10-15T19:01:42.049Z,46.95
2022-10-15T19:04:12.405Z,47.30
2022-10-15T19:06:42.894Z,47.13
2022-10-15T19:09:14.138Z,47.23
2022-10-15T19:11:43.536Z,47.25
2022-10-15T19:14:11.401Z,47.21
2022-10-15T19:16:39.068Z,47.13
2022-10-15T19:19:13.072Z,47.15
2022-10-15T19:21:40.128Z,47.13
2022-10-15T19:24:07.078Z,47.05
2022-10-15T19:26:34.948Z,47.15
2022-10-15T19:29:02.728Z,47.21
2022-10-15T19:31:38.944Z,47.07
2022-10-15T19:34:06.634Z,46.99
2022-10-15T19:36:42.984Z,47.03
2022-10-15T19:39:15.722Z,47.01
2022-10-15T19:41:44.584Z,47.08
2022-10-15T19:44:14.020Z,46.87
2022-10-15T19:46:41.154Z,47.00
2022-10-15T19:49:11.222Z,46.78
2022-10-15T19:51:38.445Z,46.88
2022-10-15T19:54:05.440Z,46.65
2022-10-15T19:56:33.168Z,46.59
2022-10-15T19:59:03.129Z,46.58
2022-10-15T20:01:30.701Z,46.57
2022-10-15T20:04:03.204Z,46.40
2022-10-15T20:06:33.781Z,46.60
2022-10-15T20:11:45.690Z,47.65
2022-10-15T20:14:13.121Z,46.87
2022-10-15T20:16:40.116Z,46.70
2022-10-15T20:19:07.247Z,46.55
2022-10-15T20:21:34.259Z,46.71
2022-10-15T20:24:04.957Z,46.55
2022-10-15T20:26:33.121Z,46.38
2022-10-15T20:29:00.285Z,46.39
2022-10-15T20:31:32.249Z,46.60
2022-10-15T20:33:59.298Z,46.62
2022-10-15T20:36:27.436Z,46.65
2022-10-15T20:38:57.530Z,46.88
2022-10-15T20:41:24.599Z,46.65
2022-10-15T20:43:55.014Z,46.65
2022-10-15T20:46:31.673Z,46.58
2022-10-15T20:49:07.603Z,46.50
2022-10-15T20:51:37.066Z,46.58
2022-10-15T20:54:04.228Z,46.51
2022-10-15T20:56:31.503Z,46.45
2022-10-15T20:58:58.552Z,46.37
2022-10-15T21:01:25.725Z,46.40
2022-10-15T21:03:52.761Z,46.29
2022-10-15T21:06:20.782Z,46.34
2022-10-15T21:08:47.896Z,46.28
2022-10-15T21:11:15.291Z,46.42
2022-10-15T21:13:42.293Z,46.38
2022-10-15T21:16:09.725Z,46.37
2022-10-15T21:18:37.673Z,46.30
2022-10-15T21:21:07.971Z,46.16
2022-10-15T21:23:36.047Z,46.43
2022-10-15T21:26:15.980Z,46.39
2022-10-15T21:28:44.109Z,46.28
2022-10-15T21:31:13.523Z,46.26
2022-10-15T21:33:41.708Z,46.27
2022-10-15T21:36:22.195Z,46.34
2022-10-15T21:39:02.608Z,46.47
2022-10-15T21:41:31.998Z,46.24
2022-10-15T21:44:00.533Z,46.31
2022-10-15T21:46:28.149Z,46.46
2022-10-15T21:48:55.168Z,46.30
2022-10-15T21:51:25.452Z,46.50
2022-10-15T21:53:53.934Z,46.33
2022-10-15T21:56:21.946Z,46.28
2022-10-15T21:58:49.570Z,46.19
2022-10-15T22:01:19.828Z,46.09
2022-10-15T22:03:48.113Z,46.13
2022-10-15T22:06:15.988Z,46.07
2022-10-15T22:08:43.983Z,45.96
2022-10-15T22:14:00.344Z,46.15
2022-10-15T22:16:28.630Z,46.17
2022-10-15T22:18:57.099Z,46.13
2022-10-15T22:21:27.335Z,46.05
2022-10-15T22:23:58.431Z,46.08
2022-10-15T22:26:28.507Z,45.94
2022-10-15T22:28:57.649Z,46.06
2022-10-15T22:31:25.517Z,46.07
2022-10-15T22:33:53.604Z,46.10
2022-10-15T22:36:26.756Z,46.13
2022-10-15T22:38:57.269Z,46.01
2022-10-15T22:41:24.818Z,45.87
2022-10-15T22:43:51.976Z,45.92
2022-10-15T22:46:18.997Z,45.94
2022-10-15T22:48:46.248Z,45.93
2022-10-15T22:51:14.117Z,45.82
2022-10-15T22:53:41.821Z,45.88
2022-10-15T22:56:15.428Z,45.88
2022-10-15T22:58:43.258Z,45.93
2022-10-15T23:01:40.119Z,45.92
2022-10-15T23:04:08.445Z,46.13
2022-10-15T23:06:37.162Z,46.10
2022-10-15T23:09:06.430Z,46.02
2022-10-15T23:11:40.277Z,46.26
2022-10-15T23:14:13.425Z,46.59
2022-10-15T23:16:43.165Z,46.80
2022-10-15T23:19:16.941Z,46.78
2022-10-15T23:21:51.264Z,47.05
2022-10-15T23:24:20.900Z,47.31
2022-10-15T23:26:48.195Z,47.46
2022-10-15T23:29:18.279Z,47.76
2022-10-15T23:31:46.206Z,47.48
2022-10-15T23:34:15.762Z,47.33
2022-10-15T23:36:43.407Z,47.79
2022-10-15T23:39:19.619Z,48.18
2022-10-15T23:41:47.556Z,47.96
2022-10-15T23:44:14.676Z,47.95
2022-10-15T23:46:41.943Z,47.90
2022-10-15T23:49:09.387Z,47.80
2022-10-15T23:51:37.212Z,48.34
2022-10-15T23:54:12.983Z,48.16
2022-10-15T23:56:40.053Z,48.32
2022-10-15T23:59:07.038Z,48.29
